Latest Weather Observations for Munglinup West

IDW60801

Issued at 5:05 am WST Saturday 25 October 2014 (issued every 30 minutes, with the page automatically refreshed every 10 minutes)

About weather observations | Map of weather stations | Latest weather observations for WA | Other Formats
Station Details ID: 012044 Name: MUNGLINUP WEST Lat: -33.55 Lon: 120.70 Height: 220.0 m
Data from the previous 72 hours. | See also: Recent months at Munglinup West
Date/Time
WST
Temp
°C
App
Temp
°C
Dew
Point
Rel
Hum
%
Delta-T
°C
Wind Press
QNH
hPa
Press
MSL
hPa
Rain
since 9 am
mm
Dir
 
Spd
km/h
Gust
km/h
Spd
kts
Gust
kts
25/05:00am 12.2 10.8 12.2 100 0.0 NNE 11 15 6 8 1013.5 1013.1 0.2
25/04:30am 12.2 12.1 12.2 100 0.0 N 4 7 2 4 1013.8 1013.5 0.2
25/04:00am 13.0 12.2 13.0 100 0.0 NE 9 15 5 8 1013.8 1013.5 0.2
25/03:30am 12.7 11.1 12.7 100 0.0 NE 13 19 7 10 1013.5 1013.1 0.2
25/03:00am 12.2 11.6 12.2 100 0.0 NE 7 13 4 7 1013.5 1013.1 0.2
25/02:30am 12.1 11.6 12.1 100 0.0 ENE 6 9 3 5 1013.6 1013.2 0.2
25/02:00am 12.0 11.3 12.0 100 0.0 NE 7 11 4 6 1013.7 1013.4 0.2
25/01:30am 11.9 11.7 11.9 100 0.0 ENE 4 6 2 3 1013.9 1013.6 0.2
25/01:00am 12.3 11.9 12.3 100 0.0 E 6 7 3 4 1014.1 1013.8 0.2
25/12:30am 12.6 12.3 12.6 100 0.0 E 6 7 3 4 1014.3 1014.0 0.2
25/12:00am 12.9 12.5 12.9 100 0.0 E 7 13 4 7 1014.5 1014.2 0.2
 
Date/Time
WST
Temp
°C
App
Temp
°C
Dew
Point
Rel
Hum
%
Delta-T
°C
Wind Press
QNH
hPa
Press
MSL
hPa
Rain
since 9 am
mm
Dir
 
Spd
km/h
Gust
km/h
Spd
kts
Gust
kts
24/11:30pm 13.2 12.1 13.2 100 0.0 E 11 15 6 8 1014.8 1014.5 0.2
24/11:00pm 13.2 12.1 13.2 100 0.0 E 11 17 6 9 1015.1 1014.7 0.2
24/10:30pm 13.4 10.9 13.4 100 0.0 E 19 24 10 13 1015.1 1014.7 0.2
24/10:00pm 13.5 10.9 13.3 99 0.1 E 19 26 10 14 1015.5 1015.1 0.2
24/09:30pm 13.8 11.1 13.5 98 0.2 ESE 20 26 11 14 1015.7 1015.3 0.2
24/09:00pm 13.9 11.2 13.6 98 0.2 E 20 30 11 16 1016.0 1015.6 0.2
24/08:30pm 14.2 11.6 13.7 97 0.3 E 20 30 11 16 1016.0 1015.6 0.2
24/08:00pm 14.4 11.8 13.8 96 0.3 ESE 20 28 11 15 1016.2 1015.8 0.2
24/07:30pm 14.6 12.0 13.8 95 0.5 ESE 20 30 11 16 1015.8 1015.4 0.2
24/07:00pm 15.0 12.6 13.7 92 0.7 ESE 19 26 10 14 1015.8 1015.4 0.2
24/06:30pm 15.7 13.3 13.9 89 1.0 ESE 19 26 10 14 1015.6 1015.2 0.2
24/06:00pm 16.9 14.4 14.0 83 1.7 SE 20 32 11 17 1015.4 1015.0 0.2
24/05:30pm 18.4 15.2 14.3 77 2.4 ESE 24 32 13 17 1015.3 1014.9 0.2
24/05:00pm 19.0 16.3 14.5 75 2.6 SE 22 32 12 17 1015.5 1015.1 0.2
24/04:30pm 20.5 18.3 14.8 70 3.4 SE 20 28 11 15 1015.4 1015.0 0.2
24/04:00pm 20.8 18.6 14.9 69 3.5 SE 20 28 11 15 1015.5 1015.1 0.2
24/03:30pm 21.7 19.7 15.5 68 3.7 SE 20 30 11 16 1015.6 1015.2 0.2
24/03:00pm 21.3 19.0 14.7 66 3.9 SE 20 30 11 16 1015.9 1015.5 0.2
24/02:30pm 21.4 20.1 14.8 66 3.9 SE 15 24 8 13 1016.3 1015.9 0.2
24/02:00pm 21.7 21.0 15.5 68 3.7 SSE 13 26 7 14 1016.6 1016.2 0.2
24/01:30pm 20.9 20.0 14.8 68 3.6 SSE 13 20 7 11 1017.1 1016.7 0.2
24/01:00pm 20.2 19.5 15.4 74 2.9 S 13 22 7 12 1017.5 1017.1 0.2
24/12:30pm 21.1 20.3 16.1 73 3.0 SSE 15 22 8 12 1017.6 1017.3 0.2
24/12:00pm 19.5 18.5 15.6 78 2.3 S 15 20 8 11 1018.2 1017.9 0.0
24/11:30am 18.7 19.2 15.6 82 1.8 S 7 11 4 6 1018.4 1018.1 0.0
24/11:00am 17.5 17.1 15.1 86 1.4 SSW 11 15 6 8 1018.6 1018.3 0.0
24/10:30am 17.3 18.0 15.5 89 1.1 S 6 11 3 6 1018.8 1018.5 0.0
24/10:00am 16.7 17.5 16.4 98 0.2 SW 7 11 4 6 1019.0 1018.7 0.0
24/09:30am 15.9 16.2 15.9 100 0.0 S 9 13 5 7 1019.2 1018.9 0.0
24/09:00am 15.5 16.2 15.5 100 0.0 SW 6 9 3 5 1019.3 1019.0 1.6
24/08:30am 14.7 14.9 14.7 100 0.0 SW 7 9 4 5 1019.3 1019.0 1.6
24/08:00am 14.8 15.0 14.8 100 0.0 SW 7 9 4 5 1019.1 1018.8 1.6
24/07:30am 14.9 14.8 14.9 100 0.0 S 9 11 5 6 1018.9 1018.6 1.6
24/07:00am 14.3 14.0 14.3 100 0.0 SSW 9 11 5 6 1019.0 1018.7 1.6
24/06:30am 14.4 14.5 14.4 100 0.0 WSW 7 11 4 6 1018.9 1018.6 1.6
24/06:00am 13.9 14.0 13.9 100 0.0 SSW 6 6 3 3 1018.8 1018.5 1.6
24/05:30am 13.7 14.1 13.7 100 0.0 SSW 4 7 2 4 1018.6 1018.3 1.2
24/05:00am 13.7 14.1 13.7 100 0.0 SSW 4 7 2 4 1018.1 1017.8 1.2
24/04:30am 13.8 13.9 13.8 100 0.0 SSW 6 7 3 4 1017.9 1017.6 1.0
24/04:00am 13.7 13.5 13.7 100 0.0 SSW 7 11 4 6 1017.8 1017.5 1.0
24/03:30am 13.7 12.4 13.7 100 0.0 S 13 17 7 9 1017.6 1017.3 1.0
24/03:00am 13.8 11.8 13.8 100 0.0 SSW 17 24 9 13 1017.4 1017.0 1.0
24/02:30am 14.0 12.0 14.0 100 0.0 SSW 17 26 9 14 1017.3 1016.9 0.8
24/02:00am 14.4 12.6 14.4 100 0.0 SSW 17 22 9 12 1017.3 1016.9 0.0
24/01:30am 14.5 14.2 14.5 100 0.0 SW 9 13 5 7 1017.2 1016.8 0.0
24/01:00am 14.7 14.0 14.4 98 0.2 W 11 15 6 8 1017.4 1017.0 0.0
24/12:30am 15.0 14.7 14.5 97 0.3 WSW 9 15 5 8 1017.3 1016.9 0.0
24/12:00am 15.2 14.6 14.7 97 0.3 SW 11 17 6 9 1017.4 1017.0 0.0
 
Date/Time
WST
Temp
°C
App
Temp
°C
Dew
Point
Rel
Hum
%
Delta-T
°C
Wind Press
QNH
hPa
Press
MSL
hPa
Rain
since 9 am
mm
Dir
 
Spd
km/h
Gust
km/h
Spd
kts
Gust
kts
23/11:30pm 15.4 14.1 14.8 96 0.3 SW 15 22 8 12 1017.2 1016.8 0.0
23/11:00pm 15.6 14.4 15.0 96 0.3 SW 15 20 8 11 1017.4 1017.0 0.0
23/10:30pm 15.6 14.0 15.0 96 0.3 SW 17 22 9 12 1017.5 1017.1 0.0
23/10:00pm 15.7 13.6 14.7 94 0.6 SW 19 26 10 14 1017.5 1017.1 0.0
23/09:30pm 15.9 14.6 14.8 93 0.6 SW 15 20 8 11 1017.6 1017.3 0.0
23/09:00pm 16.0 14.4 15.0 94 0.6 SSW 17 24 9 13 1017.3 1016.9 0.0
23/08:30pm 16.3 15.6 15.3 94 0.6 SSW 13 19 7 10 1017.0 1016.6 0.0
23/08:00pm 16.7 15.3 15.6 93 0.6 S 17 20 9 11 1016.6 1016.2 0.0
23/07:30pm 16.7 15.6 15.4 92 0.8 SSW 15 24 8 13 1016.2 1015.8 0.0
23/07:00pm 16.7 14.8 15.1 90 0.9 SSW 19 28 10 15 1015.7 1015.3 0.0
23/06:30pm 17.3 15.7 15.1 87 1.3 SSW 17 24 9 13 1015.0 1014.6 0.0
23/06:00pm 18.1 16.1 15.0 82 1.8 SSW 19 24 10 13 1014.3 1014.0 0.0
23/05:30pm 19.1 17.0 14.8 76 2.5 S 19 28 10 15 1013.7 1013.4 0.0
23/05:00pm 19.9 17.3 13.8 68 3.5 SSW 20 26 11 14 1013.2 1012.8 0.0
23/04:30pm 21.7 19.1 13.1 58 5.0 SSW 19 32 10 17 1012.7 1012.3 0.0
23/04:00pm 24.2 20.5 10.1 41 7.8 W 20 32 11 17 1012.1 1011.7 0.0
23/03:30pm 24.8 18.6 9.5 38 8.4 W 32 46 17 25 1011.8 1011.4 0.0
23/03:00pm 24.0 17.7 9.6 40 7.9 W 33 48 18 26 1011.8 1011.4 0.0
23/02:30pm 24.0 19.2 10.3 42 7.6 W 26 41 14 22 1011.6 1011.2 0.0
23/02:00pm 25.2 19.3 10.3 39 8.4 W 32 46 17 25 1011.5 1011.1 0.0
23/01:31pm 24.3 18.7 10.2 41 7.9 W 30 48 16 26 1011.5 1011.1 0.0
23/01:30pm 24.6 18.7 10.5 41 7.9 W 32 48 17 26 1011.5 1011.1 0.0
23/01:00pm 23.8 18.8 10.8 44 7.3 WNW 28 43 15 23 1011.4 1011.0 0.0
23/12:31pm 23.6 17.5 10.3 43 7.4 W 33 54 18 29 1011.4 1011.0 0.0
23/12:30pm 23.3 17.5 10.7 45 7.0 W 32 50 17 27 1011.4 1011.0 0.0
23/12:18pm 23.8 18.9 11.2 45 7.1 W 28 46 15 25 1011.4 1011.0 0.0
23/12:00pm 22.9 17.8 10.7 46 6.8 WNW 28 44 15 24 1011.4 1011.0 0.0
23/11:30am 23.2 18.1 10.6 45 7.0 WNW 28 43 15 23 1011.5 1011.1 0.0
23/11:00am 23.2 17.4 11.6 48 6.6 W 33 46 18 25 1011.6 1011.2 0.0
23/10:30am 22.4 17.6 11.5 50 6.1 WNW 28 41 15 22 1011.9 1011.5 0.0
23/10:00am 22.0 17.4 12.3 54 5.5 WNW 28 43 15 23 1011.9 1011.5 0.0
23/09:30am 21.0 17.3 12.7 59 4.8 WNW 24 41 13 22 1012.1 1011.7 0.0
23/09:00am 20.4 16.8 12.9 62 4.3 NW 24 39 13 21 1012.2 1011.8 3.4
23/08:30am 19.6 16.0 13.1 66 3.7 NW 24 35 13 19 1012.0 1011.6 3.4
23/08:00am 18.6 15.0 13.2 71 3.1 NW 24 33 13 18 1012.2 1011.8 3.4
23/07:30am 17.4 14.5 13.9 80 2.0 NNW 22 30 12 16 1012.2 1011.8 3.4
23/07:00am 16.4 13.8 13.9 85 1.4 NW 20 32 11 17 1012.3 1011.9 3.4
23/06:30am 15.4 13.1 14.6 95 0.5 NW 20 28 11 15 1012.1 1011.7 3.4
23/06:00am 14.4 12.9 14.2 99 0.1 NW 15 22 8 12 1011.8 1011.4 3.4
23/05:30am 14.0 12.8 14.0 100 0.0 NNW 13 20 7 11 1011.4 1011.0 3.4
23/05:00am 14.2 12.7 14.2 100 0.0 NW 15 20 8 11 1011.2 1010.8 3.4
23/04:30am 14.7 13.4 14.7 100 0.0 NW 15 22 8 12 1011.4 1011.0 3.4
23/04:00am 14.9 14.4 14.9 100 0.0 NW 11 15 6 8 1011.3 1010.9 3.4
23/03:30am 15.4 15.8 15.4 100 0.0 NNW 7 15 4 8 1011.1 1010.7 3.4
23/03:00am 14.6 13.6 14.6 100 0.0 NNE 13 17 7 9 1010.9 1010.5 3.4
23/02:30am 14.1 13.7 14.1 100 0.0 NW 9 13 5 7 1011.1 1010.7 3.4
23/02:00am 14.5 13.5 14.5 100 0.0 N 13 17 7 9 1010.8 1010.4 3.0
23/01:30am 14.8 12.2 14.8 100 0.0 ENE 22 33 12 18 1010.5 1010.1 3.0
23/01:00am 15.1 12.2 15.1 100 0.0 E 24 35 13 19 1010.2 1009.8 3.0
23/12:30am 15.5 12.4 15.5 100 0.0 E 26 37 14 20 1010.5 1010.1 3.0
23/12:00am 15.9 14.1 15.9 100 0.0 E 20 30 11 16 1011.5 1011.1 3.0
 
Date/Time
WST
Temp
°C
App
Temp
°C
Dew
Point
Rel
Hum
%
Delta-T
°C
Wind Press
QNH
hPa
Press
MSL
hPa
Rain
since 9 am
mm
Dir
 
Spd
km/h
Gust
km/h
Spd
kts
Gust
kts
22/11:30pm 16.5 14.8 16.3 99 0.1 ESE 20 30 11 16 1011.9 1011.5 3.0
22/11:00pm 17.3 16.8 17.0 98 0.2 SE 15 20 8 11 1012.1 1011.7 3.0
22/10:30pm 17.4 17.4 17.1 98 0.2 SE 13 19 7 10 1012.2 1011.8 3.0
22/10:00pm 17.6 17.4 16.8 95 0.5 SSE 13 20 7 11 1013.0 1012.6 3.0
22/09:55pm 17.7 17.5 16.7 94 0.6 S 13 20 7 11 1013.1 1012.7 3.0
22/09:30pm 19.8 19.3 15.9 78 2.3 WSW 13 26 7 14 1015.2 1014.8 2.0
22/09:18pm 20.2 16.5 16.0 77 2.5 W 30 41 16 22 1015.3 1014.9 0.0
22/09:12pm 20.6 20.7 15.6 73 3.0 NW 9 20 5 11 1014.3 1014.0 0.0
22/09:00pm 20.9 19.1 15.4 71 3.3 ENE 19 26 10 14 1012.3 1011.9 0.0
22/08:30pm 20.9 18.1 15.4 71 3.3 ENE 24 35 13 19 1012.0 1011.6 0.0
22/08:00pm 21.0 18.2 15.3 70 3.4 ENE 24 32 13 17 1012.2 1011.8 0.0
22/07:30pm 21.3 18.9 15.4 69 3.5 ENE 22 32 12 17 1012.8 1012.4 0.0
22/07:00pm 21.3 19.5 15.4 69 3.5 ENE 19 28 10 15 1012.8 1012.4 0.0
22/06:30pm 22.2 20.4 15.5 66 4.0 ENE 19 30 10 16 1012.9 1012.5 0.0
22/06:00pm 23.3 21.0 15.6 62 4.7 ENE 22 30 12 16 1012.5 1012.1 0.0
22/05:30pm 24.7 21.7 15.9 58 5.4 ENE 26 37 14 20 1012.9 1012.5 0.0
22/05:00pm 24.5 22.2 15.7 58 5.4 E 22 32 12 17 1013.6 1013.2 0.0
22/04:30pm 24.9 22.2 15.5 56 5.7 ENE 24 35 13 19 1014.2 1013.9 0.0
22/04:00pm 26.0 22.9 15.7 53 6.3 ENE 26 35 14 19 1014.8 1014.5 0.0
22/03:30pm 26.0 23.4 16.0 54 6.2 ENE 24 37 13 20 1015.1 1014.7 0.0
22/03:00pm 26.0 24.0 16.5 55 5.9 ENE 22 35 12 19 1015.3 1014.9 0.0
22/02:30pm 25.3 23.6 16.2 57 5.6 ENE 20 33 11 18 1016.0 1015.6 0.0
22/02:00pm 25.6 23.7 16.7 58 5.5 ENE 22 32 12 17 1016.4 1016.0 0.0
22/01:30pm 25.2 23.4 16.9 60 5.2 ENE 22 35 12 19 1017.3 1016.9 0.0
22/01:00pm 24.6 22.4 16.8 62 4.8 ENE 24 37 13 20 1017.6 1017.3 0.0
22/12:30pm 23.7 21.8 16.7 65 4.3 ENE 22 30 12 16 1018.3 1018.0 0.0
22/12:00pm 23.1 21.5 16.6 67 4.0 ENE 20 30 11 16 1018.9 1018.6 0.0
22/11:30am 22.0 19.9 16.3 70 3.5 ENE 22 33 12 18 1019.5 1019.2 0.0
22/11:00am 20.9 19.6 15.7 72 3.1 ENE 17 32 9 17 1020.5 1020.1 0.0
22/10:30am 19.3 17.8 15.2 77 2.4 ENE 17 24 9 13 1021.2 1020.8 0.0
22/10:00am 18.2 16.6 15.1 82 1.8 ENE 17 26 9 14 1021.5 1021.2 0.0
22/09:30am 16.4 14.1 14.6 89 1.0 NE 20 26 11 14 1021.7 1021.4 0.0
22/09:00am 14.6 11.8 14.3 98 0.2 ENE 22 30 12 16 1021.7 1021.4 0.4
22/08:30am 13.9 10.6 13.9 100 0.0 NE 24 35 13 19 1021.7 1021.4 0.4
22/08:00am 13.3 10.2 13.3 100 0.0 NE 22 33 12 18 1021.8 1021.5 0.4
22/07:30am 13.3 - - - - ENE 28 37 15 20 1022.0 1021.7 0.4
22/07:00am 13.1 - - - - ENE 24 35 13 19 1022.2 1021.9 0.4
22/06:30am 12.3 - - - - ENE 20 28 11 15 1022.3 1022.0 0.4
22/06:00am 11.0 - - - - E 15 19 8 10 1022.3 1022.0 0.4
22/05:30am 10.6 - - - - E 11 15 6 8 1022.3 1022.0 0.4

Other Formats:

Comma delimited format used in spreadsheet applications
http://www.bom.gov.au/fwo/IDW60801/IDW60801.95644.axf

JavaScript Object Notation format (JSON) in row-major order
http://www.bom.gov.au/fwo/IDW60801/IDW60801.95644.json